Wellington, Colorado
Current Conditions -  °F | °C
As of 12:15 AM on Sunday 23 Nov 2014 (Local Time) from KFNL Reporting Station
Clear Clear  
Wind Chill: 37°   Ceiling: Unl
Heat Index: 45°   Visibility: 10mi
Dew Point: 25°   Wind: 18mph
Humidity: 46%   Direction: 340°NNW
Pressure: 29.58"   Gusts: 26mph
Location:  40.7°N, 105.01°W
Report Text: KFNL 230715Z AUTO 34016G23KT 10SM CLR 07/M04 A2958 RMK AO1
Loading
Personal Weather Stations






























Interactive Weather Map New forecast layout! Learn more

10-Day Weather Forecast

Advertisements
Track Severe Weather on mobile